TimeCST,TemperatureF,Dew PointF,Humidity,Sea Level PressureIn,VisibilityMPH,Wind Direction,Wind SpeedMPH,Gust SpeedMPH,PrecipitationIn,Events,Conditions,WindDirDegrees,DateUTC
12:53 AM,30.9,24.1,76,30.31,10.0,Calm,Calm,-,N/A,,Clear,0,2013-01-17 06:53:00
1:53 AM,30.9,24.1,76,30.33,10.0,Calm,Calm,-,N/A,,Clear,0,2013-01-17 07:53:00
2:53 AM,36.0,26.1,67,30.34,10.0,WNW,12.7,-,N/A,,Clear,290,2013-01-17 08:53:00
3:53 AM,35.1,25.0,67,30.34,10.0,North,3.5,-,N/A,,Unknown,10,2013-01-17 09:53:00
4:53 AM,36.0,26.1,67,30.35,10.0,West,4.6,-,N/A,,Clear,280,2013-01-17 10:53:00
5:53 AM,35.1,27.0,72,30.37,10.0,NW,4.6,-,N/A,,Clear,320,2013-01-17 11:53:00
6:53 AM,36.0,28.0,73,30.39,10.0,NW,4.6,-,N/A,,Clear,310,2013-01-17 12:53:00
7:53 AM,36.0,28.9,76,30.43,10.0,NW,3.5,-,N/A,,Clear,310,2013-01-17 13:53:00
8:53 AM,42.1,30.0,62,30.45,10.0,NW,9.2,-,N/A,,Clear,320,2013-01-17 14:53:00
9:53 AM,46.9,32.0,56,30.48,10.0,NW,8.1,-,N/A,,Clear,320,2013-01-17 15:53:00
10:53 AM,54.0,32.0,43,30.48,10.0,NNW,9.2,-,N/A,,Clear,330,2013-01-17 16:53:00
11:53 AM,59.0,32.0,36,30.47,10.0,North,6.9,-,N/A,,Clear,10,2013-01-17 17:53:00
12:53 PM,61.0,30.9,32,30.45,10.0,North,12.7,-,N/A,,Clear,360,2013-01-17 18:53:00
1:53 PM,63.0,32.0,31,30.42,10.0,North,12.7,21.9,N/A,,Clear,350,2013-01-17 19:53:00
2:53 PM,63.0,28.9,28,30.40,10.0,NE,9.2,-,N/A,,Clear,40,2013-01-17 20:53:00
3:53 PM,64.0,28.9,27,30.41,10.0,North,8.1,-,N/A,,Clear,10,2013-01-17 21:53:00
4:53 PM,62.1,28.9,29,30.43,10.0,North,6.9,-,N/A,,Clear,10,2013-01-17 22:53:00
5:53 PM,57.0,30.9,37,30.44,10.0,North,3.5,-,N/A,,Clear,350,2013-01-17 23:53:00
6:53 PM,52.0,30.0,43,30.47,10.0,North,3.5,-,N/A,,Clear,350,2013-01-18 00:53:00
7:53 PM,46.0,30.9,56,30.49,10.0,North,3.5,-,N/A,,Clear,10,2013-01-18 01:53:00
8:53 PM,46.0,30.0,54,30.50,10.0,North,5.8,-,N/A,,Clear,10,2013-01-18 02:53:00
9:53 PM,44.1,28.9,55,30.50,10.0,NNE,4.6,-,N/A,,Clear,20,2013-01-18 03:53:00
10:53 PM,42.1,28.9,60,30.50,10.0,North,5.8,-,N/A,,Clear,10,2013-01-18 04:53:00
11:53 PM,43.0,28.9,58,30.50,10.0,North,4.6,-,N/A,,Clear,10,2013-01-18 05:53:00